createdAt,value
2023-05-01T00:00:41.043Z,6.94
2023-05-01T00:01:41.044Z,6.98
2023-05-01T00:02:41.107Z,7
2023-05-01T00:03:41.164Z,7.03
2023-05-01T00:04:41.082Z,7.06
2023-05-01T00:05:41.043Z,7.08
2023-05-01T00:06:41.151Z,7.08
2023-05-01T00:07:41.147Z,7.08
2023-05-01T00:08:41.041Z,7.08
2023-05-01T00:09:41.089Z,7.06
2023-05-01T00:10:41.046Z,7.02
2023-05-01T00:11:43.371Z,7
2023-05-01T00:12:46.292Z,6.96
2023-05-01T00:14:41.042Z,6.86
2023-05-01T00:15:41.152Z,6.8
2023-05-01T00:16:41.222Z,6.75
2023-05-01T00:17:41.090Z,6.68
2023-05-01T00:18:41.051Z,6.6
2023-05-01T00:19:41.112Z,6.55
2023-05-01T00:20:41.175Z,6.49
2023-05-01T00:21:41.062Z,6.44
2023-05-01T00:22:41.071Z,6.38
2023-05-01T00:23:41.050Z,6.33
2023-05-01T00:24:41.062Z,6.28
2023-05-01T00:25:41.149Z,6.22
2023-05-01T00:26:41.115Z,6.16
2023-05-01T00:27:41.132Z,6.1
2023-05-01T00:28:41.064Z,6.05
2023-05-01T00:29:41.069Z,6
2023-05-01T00:30:41.076Z,5.95
2023-05-01T00:31:41.237Z,5.91
2023-05-01T00:32:43.456Z,5.88
2023-05-01T00:33:46.352Z,5.84
2023-05-01T00:35:41.053Z,5.79
2023-05-01T00:36:41.064Z,5.78
2023-05-01T00:37:41.048Z,5.77
2023-05-01T00:38:41.049Z,5.77
2023-05-01T00:39:41.066Z,5.78
2023-05-01T00:40:41.048Z,5.77
2023-05-01T00:41:41.048Z,5.77
2023-05-01T00:42:41.057Z,5.77
2023-05-01T00:43:41.060Z,5.75
2023-05-01T00:44:41.069Z,5.73
2023-05-01T00:45:41.095Z,5.72
2023-05-01T00:46:41.053Z,5.73
2023-05-01T00:47:41.094Z,5.74
2023-05-01T00:48:41.052Z,5.74
2023-05-01T00:49:41.206Z,5.75
2023-05-01T00:50:41.081Z,5.75
2023-05-01T00:51:41.054Z,5.75
2023-05-01T00:52:41.110Z,5.73
2023-05-01T00:53:43.530Z,5.73
2023-05-01T00:54:46.539Z,5.72
2023-05-01T00:56:41.050Z,5.7
2023-05-01T00:57:41.042Z,5.68
2023-05-01T00:58:41.050Z,5.67
2023-05-01T00:59:41.050Z,5.65
2023-05-01T01:00:41.055Z,5.62
2023-05-01T01:01:41.065Z,5.62
2023-05-01T01:02:41.093Z,5.65
2023-05-01T01:03:41.045Z,5.69
2023-05-01T01:04:41.084Z,5.73
2023-05-01T01:05:41.070Z,5.77
2023-05-01T01:06:41.074Z,5.8
2023-05-01T01:07:41.052Z,5.82
2023-05-01T01:08:41.051Z,5.84
2023-05-01T01:09:41.042Z,5.83
2023-05-01T01:10:41.069Z,5.86
2023-05-01T01:11:41.042Z,5.87
2023-05-01T01:12:41.038Z,5.88
2023-05-01T01:13:41.272Z,5.89
2023-05-01T01:14:43.443Z,5.91
2023-05-01T01:15:46.579Z,5.95
2023-05-01T01:17:41.071Z,6.03
2023-05-01T01:18:41.056Z,6.06
2023-05-01T01:19:41.059Z,6.09
2023-05-01T01:20:41.047Z,6.12
2023-05-01T01:21:41.038Z,6.13
2023-05-01T01:22:41.052Z,6.15
2023-05-01T01:23:41.219Z,6.14
2023-05-01T01:24:41.217Z,6.14
2023-05-01T01:25:41.265Z,6.13
2023-05-01T01:26:41.046Z,6.11
2023-05-01T01:27:41.037Z,6.1
2023-05-01T01:28:41.039Z,6.08
2023-05-01T01:29:41.038Z,6.07
2023-05-01T01:30:41.074Z,6.04
2023-05-01T01:31:41.136Z,6.01
2023-05-01T01:32:41.076Z,5.97
2023-05-01T01:33:41.042Z,5.92
2023-05-01T01:34:41.447Z,5.88
2023-05-01T01:35:43.635Z,5.84
2023-05-01T01:36:46.717Z,5.78
2023-05-01T01:38:41.046Z,5.69
2023-05-01T01:39:41.068Z,5.64
2023-05-01T01:40:41.039Z,5.59
2023-05-01T01:41:41.044Z,5.53
2023-05-01T01:42:41.187Z,5.48
2023-05-01T01:43:41.039Z,5.42
2023-05-01T01:44:41.046Z,5.36
2023-05-01T01:45:41.103Z,5.31
2023-05-01T01:46:41.155Z,5.28
2023-05-01T01:47:41.240Z,5.26
2023-05-01T01:48:41.182Z,5.23
2023-05-01T01:49:41.241Z,5.2
2023-05-01T01:50:41.047Z,5.17
2023-05-01T01:51:41.087Z,5.13
2023-05-01T01:52:41.049Z,5.1
2023-05-01T01:53:41.040Z,5.07
2023-05-01T01:54:41.055Z,5.04
2023-05-01T01:55:41.558Z,5
2023-05-01T01:56:43.745Z,4.97
2023-05-01T01:57:46.852Z,4.94
2023-05-01T01:59:41.048Z,4.9
2023-05-01T02:00:41.043Z,4.87
2023-05-01T02:01:41.101Z,4.85
2023-05-01T02:02:41.143Z,4.82
2023-05-01T02:03:41.338Z,4.8
2023-05-01T02:04:41.068Z,4.78
2023-05-01T02:05:41.268Z,4.76
2023-05-01T02:06:41.226Z,4.75
2023-05-01T02:07:41.293Z,4.72
2023-05-01T02:08:41.265Z,4.7
2023-05-01T02:09:41.212Z,4.72
2023-05-01T02:10:41.054Z,4.73
2023-05-01T02:11:41.055Z,4.73
2023-05-01T02:12:41.047Z,4.74
2023-05-01T02:13:41.075Z,4.74
2023-05-01T02:14:41.153Z,4.73
2023-05-01T02:15:41.226Z,4.74
2023-05-01T02:16:41.568Z,4.77
2023-05-01T02:17:44.586Z,4.82
2023-05-01T02:18:46.891Z,4.88
2023-05-01T02:20:41.087Z,4.96
2023-05-01T02:21:41.055Z,4.98
2023-05-01T02:22:41.069Z,4.99
2023-05-01T02:23:41.056Z,4.98
2023-05-01T02:24:41.212Z,4.98
2023-05-01T02:25:41.075Z,4.96
2023-05-01T02:26:41.071Z,4.95
2023-05-01T02:27:41.050Z,4.94
2023-05-01T02:28:41.047Z,4.92
2023-05-01T02:29:41.043Z,4.9
2023-05-01T02:30:41.043Z,4.88
2023-05-01T02:31:41.074Z,4.85
2023-05-01T02:32:41.071Z,4.83
2023-05-01T02:33:41.043Z,4.81
2023-05-01T02:34:41.161Z,4.82
2023-05-01T02:35:41.052Z,4.84
2023-05-01T02:36:41.056Z,4.87
2023-05-01T02:37:41.072Z,4.93
2023-05-01T02:38:44.634Z,4.97
2023-05-01T02:39:47.008Z,5
2023-05-01T02:41:41.041Z,5
2023-05-01T02:42:41.048Z,4.98
2023-05-01T02:43:41.042Z,4.97
2023-05-01T02:44:41.072Z,4.96
2023-05-01T02:45:41.074Z,4.96
2023-05-01T02:46:41.109Z,4.95
2023-05-01T02:47:41.066Z,4.93
2023-05-01T02:48:41.059Z,4.91
2023-05-01T02:49:41.059Z,4.88
2023-05-01T02:50:41.062Z,4.84
2023-05-01T02:51:41.061Z,4.82
2023-05-01T02:52:41.050Z,4.79
2023-05-01T02:53:41.050Z,4.78
2023-05-01T02:54:41.050Z,4.76
2023-05-01T02:55:41.239Z,4.74
2023-05-01T02:56:41.043Z,4.74
2023-05-01T02:57:41.053Z,4.74
2023-05-01T02:58:41.605Z,4.8
2023-05-01T02:59:44.546Z,4.86
2023-05-01T03:00:47.385Z,4.91
2023-05-01T03:02:41.086Z,5
2023-05-01T03:03:41.074Z,5.02
2023-05-01T03:04:41.092Z,5.05
2023-05-01T03:05:41.058Z,5.07
2023-05-01T03:06:41.061Z,5.1
2023-05-01T03:07:41.052Z,5.11
2023-05-01T03:08:41.047Z,5.13
2023-05-01T03:09:41.092Z,5.14
2023-05-01T03:10:41.051Z,5.15
2023-05-01T03:11:41.052Z,5.18
2023-05-01T03:12:41.050Z,5.2
2023-05-01T03:13:41.048Z,5.26
2023-05-01T03:14:41.085Z,5.29
2023-05-01T03:15:41.049Z,5.32
2023-05-01T03:16:41.080Z,5.36
2023-05-01T03:17:41.154Z,5.39
2023-05-01T03:18:41.048Z,5.4
2023-05-01T03:19:41.079Z,5.41
2023-05-01T03:20:41.595Z,5.41
2023-05-01T03:21:45.020Z,5.42
2023-05-01T03:22:47.778Z,5.42
2023-05-01T03:24:41.066Z,5.46
2023-05-01T03:25:41.043Z,5.47
2023-05-01T03:26:41.053Z,5.5
2023-05-01T03:27:41.044Z,5.51
2023-05-01T03:28:41.388Z,5.52
2023-05-01T03:29:41.073Z,5.54
2023-05-01T03:30:41.169Z,5.56
2023-05-01T03:31:41.104Z,5.56
2023-05-01T03:32:41.046Z,5.58
2023-05-01T03:33:41.109Z,5.6
2023-05-01T03:34:41.220Z,5.62
2023-05-01T03:35:41.241Z,5.65
2023-05-01T03:36:41.201Z,5.68
2023-05-01T03:37:41.065Z,5.69
2023-05-01T03:38:41.351Z,5.73
2023-05-01T03:39:41.062Z,5.76
2023-05-01T03:40:41.400Z,5.78
2023-05-01T03:41:41.651Z,5.81
2023-05-01T03:42:45.212Z,5.85
2023-05-01T03:43:47.906Z,5.88
2023-05-01T03:45:44.294Z,5.92
2023-05-01T03:46:41.310Z,5.94
2023-05-01T03:47:41.317Z,5.96
2023-05-01T03:48:41.051Z,5.98
2023-05-01T03:49:41.041Z,5.99
2023-05-01T03:50:41.053Z,6.01
2023-05-01T03:51:41.055Z,6.03
2023-05-01T03:52:41.046Z,6.04
2023-05-01T03:53:41.053Z,6.06
2023-05-01T03:54:41.049Z,6.06
2023-05-01T03:55:41.056Z,6.08
2023-05-01T03:56:41.056Z,6.1
2023-05-01T03:57:41.054Z,6.14
2023-05-01T03:58:41.055Z,6.16
2023-05-01T03:59:41.065Z,6.2
2023-05-01T04:00:41.060Z,6.23
2023-05-01T04:01:41.075Z,6.25
2023-05-01T04:02:41.090Z,6.26
2023-05-01T04:03:43.535Z,6.27
2023-05-01T04:04:46.454Z,6.27
2023-05-01T04:06:41.162Z,6.26
2023-05-01T04:07:41.183Z,6.25
2023-05-01T04:08:41.072Z,6.25
2023-05-01T04:09:41.054Z,6.26
2023-05-01T04:10:41.130Z,6.27
2023-05-01T04:11:41.089Z,6.31
2023-05-01T04:12:41.065Z,6.34
2023-05-01T04:13:41.060Z,6.36
2023-05-01T04:14:41.048Z,6.37
2023-05-01T04:15:41.056Z,6.38
2023-05-01T04:16:41.216Z,6.39
2023-05-01T04:17:41.212Z,6.39
2023-05-01T04:18:41.050Z,6.38
2023-05-01T04:19:41.054Z,6.39
2023-05-01T04:20:41.046Z,6.38
2023-05-01T04:21:41.062Z,6.36
2023-05-01T04:22:41.048Z,6.36
2023-05-01T04:23:41.653Z,6.35
2023-05-01T04:24:45.278Z,6.35
2023-05-01T04:25:48.250Z,6.35
2023-05-01T04:27:41.185Z,6.42
2023-05-01T04:28:41.204Z,6.45
2023-05-01T04:29:41.060Z,6.48
2023-05-01T04:30:41.332Z,6.51
2023-05-01T04:31:41.428Z,6.54
2023-05-01T04:32:41.387Z,6.56
2023-05-01T04:33:41.366Z,6.6
2023-05-01T04:34:41.050Z,6.63
2023-05-01T04:35:41.052Z,6.66
2023-05-01T04:36:41.405Z,6.67
2023-05-01T04:37:41.085Z,6.73
2023-05-01T04:38:41.040Z,6.76
2023-05-01T04:39:41.042Z,6.78
2023-05-01T04:40:41.060Z,6.8
2023-05-01T04:41:41.042Z,6.82
2023-05-01T04:42:41.091Z,6.84
2023-05-01T04:43:41.050Z,6.86
2023-05-01T04:44:41.935Z,6.88
2023-05-01T04:45:45.581Z,6.93
2023-05-01T04:46:47.613Z,6.94
2023-05-01T04:48:41.077Z,7.04
2023-05-01T04:49:41.043Z,7.08
2023-05-01T04:50:41.046Z,7.11
2023-05-01T04:51:41.047Z,7.13
2023-05-01T04:52:41.052Z,7.15
2023-05-01T04:53:41.068Z,7.19
2023-05-01T04:54:41.054Z,7.23
2023-05-01T04:55:41.116Z,7.26
2023-05-01T04:56:41.041Z,7.28
2023-05-01T04:57:41.040Z,7.33
2023-05-01T04:58:41.131Z,7.34
2023-05-01T04:59:41.038Z,7.36
2023-05-01T05:00:41.044Z,7.39
2023-05-01T05:01:41.170Z,7.41
2023-05-01T05:02:41.065Z,7.45
2023-05-01T05:03:41.099Z,7.47
2023-05-01T05:04:41.051Z,7.49
2023-05-01T05:05:42.100Z,7.52
2023-05-01T05:06:45.666Z,7.54
2023-05-01T05:07:47.763Z,7.55
2023-05-01T05:09:41.047Z,7.64
2023-05-01T05:10:41.046Z,7.65
2023-05-01T05:11:41.039Z,7.7
2023-05-01T05:12:41.060Z,7.73
2023-05-01T05:13:41.057Z,7.77
2023-05-01T05:14:41.043Z,7.81
2023-05-01T05:15:41.043Z,7.85
2023-05-01T05:16:41.253Z,7.89
2023-05-01T05:17:41.054Z,7.94
2023-05-01T05:18:41.053Z,7.97
2023-05-01T05:19:41.192Z,8.02
2023-05-01T05:20:41.036Z,8.05
2023-05-01T05:21:41.051Z,8.1
2023-05-01T05:22:41.043Z,8.16
2023-05-01T05:23:41.089Z,8.22
2023-05-01T05:24:41.137Z,8.26
2023-05-01T05:25:41.047Z,8.3
2023-05-01T05:26:42.493Z,8.34
2023-05-01T05:27:45.685Z,8.35
2023-05-01T05:28:48.594Z,8.35
2023-05-01T05:30:41.051Z,8.4
2023-05-01T05:31:41.061Z,8.42
2023-05-01T05:32:41.052Z,8.42
2023-05-01T05:33:41.056Z,8.47
2023-05-01T05:34:41.038Z,8.45
2023-05-01T05:35:41.045Z,8.51
2023-05-01T05:36:41.042Z,8.56
2023-05-01T05:37:41.051Z,8.59
2023-05-01T05:38:41.046Z,8.64
2023-05-01T05:39:41.046Z,8.7
2023-05-01T05:40:41.096Z,8.76
2023-05-01T05:41:41.060Z,8.79
2023-05-01T05:42:41.048Z,8.85
2023-05-01T05:43:41.048Z,8.87
2023-05-01T05:44:41.045Z,8.91
2023-05-01T05:45:41.038Z,8.93
2023-05-01T05:46:41.095Z,8.96
2023-05-01T05:47:42.270Z,8.97
2023-05-01T05:48:45.382Z,9.03
2023-05-01T05:49:48.747Z,9.07
2023-05-01T05:51:41.100Z,9.18
2023-05-01T05:52:41.052Z,9.26
2023-05-01T05:53:41.087Z,9.34
2023-05-01T05:54:41.054Z,9.41
2023-05-01T05:55:41.052Z,9.48
2023-05-01T05:56:41.052Z,9.52
2023-05-01T05:57:41.073Z,9.6
2023-05-01T05:58:41.070Z,9.63
2023-05-01T05:59:41.058Z,9.7
2023-05-01T06:00:41.055Z,9.74
2023-05-01T06:01:41.273Z,9.83
2023-05-01T06:02:41.098Z,9.9
2023-05-01T06:03:41.132Z,9.97
2023-05-01T06:04:41.052Z,10.02
2023-05-01T06:05:41.093Z,10.12
2023-05-01T06:06:41.106Z,10.21
2023-05-01T06:07:41.046Z,10.28
2023-05-01T06:08:41.249Z,10.33
2023-05-01T06:09:44.382Z,10.43
2023-05-01T06:10:46.107Z,10.56
2023-05-01T06:11:41.050Z,10.61
2023-05-01T06:12:45.019Z,10.68
2023-05-01T06:13:41.086Z,10.73
2023-05-01T06:14:41.049Z,10.77
2023-05-01T06:15:41.098Z,10.8
2023-05-01T06:16:41.061Z,10.83
2023-05-01T06:17:41.088Z,10.87
2023-05-01T06:18:41.070Z,10.83
2023-05-01T06:19:41.096Z,10.91
2023-05-01T06:20:41.057Z,10.91
2023-05-01T06:21:41.038Z,10.98
2023-05-01T06:22:41.051Z,11.01
2023-05-01T06:23:41.052Z,11.07
2023-05-01T06:24:41.046Z,11.13
2023-05-01T06:25:41.052Z,11.2
2023-05-01T06:26:41.055Z,11.24
2023-05-01T06:27:41.041Z,11.25
2023-05-01T06:28:41.049Z,11.3
2023-05-01T06:29:41.063Z,11.36
2023-05-01T06:30:43.106Z,11.42
2023-05-01T06:31:46.024Z,11.42
2023-05-01T06:32:48.067Z,11.53
2023-05-01T06:33:41.039Z,11.59
2023-05-01T06:34:41.041Z,11.68
2023-05-01T06:35:42.402Z,11.75
2023-05-01T06:36:41.042Z,11.84
2023-05-01T06:37:41.066Z,11.89
2023-05-01T06:38:41.048Z,12.01
2023-05-01T06:39:41.043Z,12.09
2023-05-01T06:40:41.085Z,12.13
2023-05-01T06:41:41.043Z,12.25
2023-05-01T06:42:41.042Z,12.28
2023-05-01T06:43:41.048Z,12.4
2023-05-01T06:44:41.131Z,12.38
2023-05-01T06:45:41.065Z,12.38
2023-05-01T06:46:41.109Z,12.41
2023-05-01T06:47:41.145Z,12.36
2023-05-01T06:48:41.053Z,12.31
2023-05-01T06:49:41.044Z,12.29
2023-05-01T06:50:41.043Z,12.26
2023-05-01T06:51:43.253Z,12.25
2023-05-01T06:52:46.081Z,12.29
2023-05-01T06:53:47.874Z,12.36
2023-05-01T06:54:41.055Z,12.35
2023-05-01T06:55:41.036Z,12.34
2023-05-01T06:56:41.074Z,12.32
2023-05-01T06:57:41.043Z,12.3
2023-05-01T06:58:41.047Z,12.26
2023-05-01T06:59:41.034Z,12.26
2023-05-01T07:00:41.089Z,12.29
2023-05-01T07:01:41.070Z,12.27
2023-05-01T07:02:41.241Z,12.35
2023-05-01T07:03:41.109Z,12.42
2023-05-01T07:04:41.053Z,12.4
2023-05-01T07:05:41.178Z,12.41
2023-05-01T07:06:41.156Z,12.37
2023-05-01T07:07:44.696Z,12.39
2023-05-01T07:08:41.200Z,12.31
2023-05-01T07:09:41.042Z,12.31
2023-05-01T07:10:44.047Z,12.31
2023-05-01T07:11:41.069Z,12.31
2023-05-01T07:12:43.176Z,12.31
2023-05-01T07:13:46.086Z,12.31
2023-05-01T07:14:48.116Z,12.51
2023-05-01T07:15:41.049Z,12.55
2023-05-01T07:16:41.112Z,12.6
2023-05-01T07:17:41.054Z,12.64
2023-05-01T07:18:41.054Z,12.64
2023-05-01T07:19:41.071Z,12.7
2023-05-01T07:20:41.070Z,12.74
2023-05-01T07:21:41.059Z,12.83
2023-05-01T07:22:41.057Z,12.91
2023-05-01T07:23:41.062Z,12.93
2023-05-01T07:24:41.055Z,12.84
2023-05-01T07:25:41.065Z,12.82
2023-05-01T07:26:41.229Z,12.85
2023-05-01T07:27:41.051Z,12.82
2023-05-01T07:28:41.059Z,12.85
2023-05-01T07:29:41.130Z,12.88
2023-05-01T07:30:41.046Z,12.88
2023-05-01T07:31:41.061Z,12.95
2023-05-01T07:32:41.124Z,13
2023-05-01T07:33:43.310Z,13.02
2023-05-01T07:34:46.491Z,13.1
2023-05-01T07:35:48.037Z,13.15
2023-05-01T07:36:41.084Z,13.29
2023-05-01T07:37:41.057Z,13.44
2023-05-01T07:38:41.068Z,13.54
2023-05-01T07:39:41.047Z,13.61
2023-05-01T07:40:41.058Z,13.58
2023-05-01T07:41:41.048Z,13.75
2023-05-01T07:42:41.046Z,13.76
2023-05-01T07:43:41.065Z,13.83
2023-05-01T07:44:41.071Z,13.75
2023-05-01T07:45:41.059Z,13.82
2023-05-01T07:46:41.075Z,13.86
2023-05-01T07:47:41.108Z,13.95
2023-05-01T07:48:41.065Z,13.99
2023-05-01T07:49:41.070Z,14.12
2023-05-01T07:50:41.137Z,14.17
2023-05-01T07:51:41.057Z,14.25
2023-05-01T07:52:41.058Z,14.28
2023-05-01T07:53:41.044Z,14.23
2023-05-01T07:54:43.420Z,14.35
2023-05-01T07:55:46.262Z,14.32
2023-05-01T07:57:41.042Z,14.26
2023-05-01T07:58:41.069Z,14.19
2023-05-01T07:59:41.060Z,14.18
2023-05-01T08:00:41.043Z,14.12
2023-05-01T08:01:41.055Z,13.97
2023-05-01T08:02:41.247Z,13.92
2023-05-01T08:03:41.137Z,13.92
2023-05-01T08:04:41.099Z,14.02
2023-05-01T08:05:41.037Z,14.11
2023-05-01T08:06:41.075Z,14.13
2023-05-01T08:07:41.060Z,14.26
2023-05-01T08:08:41.078Z,14.38
2023-05-01T08:09:41.038Z,14.55
2023-05-01T08:10:41.050Z,14.62
2023-05-01T08:11:41.056Z,14.78
2023-05-01T08:12:41.045Z,14.79
2023-05-01T08:13:41.083Z,14.85
2023-05-01T08:14:41.063Z,14.98
2023-05-01T08:15:43.620Z,14.94
2023-05-01T08:16:46.463Z,15.08
2023-05-01T08:18:41.066Z,14.99
2023-05-01T08:19:41.061Z,15.02
2023-05-01T08:20:41.072Z,15.15
2023-05-01T08:21:41.070Z,15.08
2023-05-01T08:22:41.070Z,15.11
2023-05-01T08:23:41.049Z,15.14
2023-05-01T08:24:41.058Z,15.07
2023-05-01T08:25:41.055Z,15.08
2023-05-01T08:26:41.049Z,15.05
2023-05-01T08:27:41.046Z,15.16
2023-05-01T08:28:41.059Z,15.27
2023-05-01T08:29:41.059Z,15.28
2023-05-01T08:30:41.067Z,15.29
2023-05-01T08:31:41.109Z,15.28
2023-05-01T08:32:41.079Z,15.3
2023-05-01T08:33:41.046Z,15.44
2023-05-01T08:34:41.059Z,15.52
2023-05-01T08:35:41.223Z,15.52
2023-05-01T08:36:43.583Z,15.49
2023-05-01T08:37:46.421Z,15.47
2023-05-01T08:39:41.049Z,15.6
2023-05-01T08:40:41.129Z,15.61
2023-05-01T08:41:41.058Z,15.57
2023-05-01T08:42:41.053Z,15.57
2023-05-01T08:43:41.078Z,15.62
2023-05-01T08:44:41.073Z,15.83
2023-05-01T08:45:41.049Z,15.86
2023-05-01T08:46:41.074Z,15.88
2023-05-01T08:47:41.081Z,15.82
2023-05-01T08:48:41.070Z,15.79
2023-05-01T08:49:41.055Z,15.85
2023-05-01T08:50:41.046Z,15.78
2023-05-01T08:51:41.068Z,15.7
2023-05-01T08:52:41.055Z,15.69
2023-05-01T08:53:41.081Z,15.68
2023-05-01T08:54:41.058Z,15.8
2023-05-01T08:55:41.053Z,15.81
2023-05-01T08:56:41.354Z,16
2023-05-01T08:57:43.515Z,15.95
2023-05-01T08:58:46.516Z,16.06
2023-05-01T09:00:41.084Z,16.02
2023-05-01T09:01:41.101Z,15.99
2023-05-01T09:02:41.098Z,15.91
2023-05-01T09:03:41.079Z,15.98
2023-05-01T09:04:41.037Z,16.05
2023-05-01T09:05:41.063Z,16.07
2023-05-01T09:06:41.072Z,16.24
2023-05-01T09:07:41.049Z,16.41
2023-05-01T09:08:41.042Z,16.63
2023-05-01T09:09:41.044Z,16.8
2023-05-01T09:10:41.065Z,17.11
2023-05-01T09:11:41.045Z,17.28
2023-05-01T09:12:41.058Z,17.58
2023-05-01T09:13:41.055Z,17.85
2023-05-01T09:14:41.048Z,18.18
2023-05-01T09:15:41.071Z,18.67
2023-05-01T09:16:41.071Z,18.84
2023-05-01T09:17:41.345Z,19.2
2023-05-01T09:18:43.708Z,19.25
2023-05-01T09:19:46.648Z,19.35
2023-05-01T09:21:41.047Z,19.45
2023-05-01T09:22:41.046Z,19.72
2023-05-01T09:23:41.051Z,20.11
2023-05-01T09:24:41.071Z,20.3
2023-05-01T09:25:41.117Z,20.53
2023-05-01T09:26:41.043Z,20.59
2023-05-01T09:27:41.050Z,20.03
2023-05-01T09:28:41.055Z,20.29
2023-05-01T09:29:41.068Z,19.69
2023-05-01T09:30:41.056Z,19.61
2023-05-01T09:31:41.090Z,19.68
2023-05-01T09:32:44.078Z,20.01
2023-05-01T09:33:41.387Z,20.22
2023-05-01T09:34:41.083Z,20.44
2023-05-01T09:35:41.047Z,20.54
2023-05-01T09:36:41.067Z,20.23
2023-05-01T09:37:41.049Z,20.23
2023-05-01T09:38:41.046Z,20.41
2023-05-01T09:39:41.587Z,19.87
2023-05-01T09:40:45.006Z,19.23
2023-05-01T09:41:47.164Z,19.12
2023-05-01T09:43:41.049Z,19.45
2023-05-01T09:44:41.051Z,19.53
2023-05-01T09:45:41.074Z,19.7
2023-05-01T09:46:41.145Z,20.08
2023-05-01T09:47:41.064Z,20.04
2023-05-01T09:48:41.056Z,20.15
2023-05-01T09:49:41.056Z,20.29
2023-05-01T09:50:41.079Z,20.08
2023-05-01T09:51:41.047Z,19.96
2023-05-01T09:52:41.051Z,19.7
2023-05-01T09:53:41.055Z,19.61
2023-05-01T09:54:41.057Z,19.54
2023-05-01T09:55:41.078Z,19.5
2023-05-01T09:56:41.043Z,19.64
2023-05-01T09:57:41.038Z,19.82
2023-05-01T09:58:41.047Z,20.03
2023-05-01T09:59:41.058Z,19.96
2023-05-01T10:00:41.700Z,20.3
2023-05-01T10:01:45.253Z,20.37
2023-05-01T10:02:48.408Z,20.22
2023-05-01T10:04:41.051Z,20.47
2023-05-01T10:05:41.073Z,20.17
2023-05-01T10:06:41.112Z,20.6
2023-05-01T10:07:41.057Z,20.75
2023-05-01T10:08:41.052Z,20.75
2023-05-01T10:09:41.048Z,20.85
2023-05-01T10:10:41.069Z,20.64
2023-05-01T10:11:41.046Z,20.66
2023-05-01T10:12:41.048Z,20.3
2023-05-01T10:13:41.049Z,20.1
2023-05-01T10:14:41.064Z,20.02
2023-05-01T10:15:41.063Z,20.17
2023-05-01T10:16:41.085Z,20.13
2023-05-01T10:17:41.076Z,20.04
2023-05-01T10:18:41.054Z,20.12
2023-05-01T10:19:41.046Z,19.98
2023-05-01T10:20:41.057Z,19.5
2023-05-01T10:21:41.745Z,19.69
2023-05-01T10:22:45.480Z,19.66
2023-05-01T10:23:47.364Z,19.58
2023-05-01T10:25:41.154Z,19.41
2023-05-01T10:26:41.059Z,19.31
2023-05-01T10:27:41.064Z,19.05
2023-05-01T10:28:41.056Z,19.15
2023-05-01T10:29:41.051Z,19.34
2023-05-01T10:30:41.108Z,19.55
2023-05-01T10:31:42.589Z,19.57
2023-05-01T10:32:41.116Z,19.87
2023-05-01T10:33:41.051Z,19.82
2023-05-01T10:34:41.042Z,19.75
2023-05-01T10:35:41.073Z,19.67
2023-05-01T10:36:41.047Z,19.64
2023-05-01T10:37:41.048Z,19.76
2023-05-01T10:38:41.044Z,20.16
2023-05-01T10:39:41.046Z,20.38
2023-05-01T10:40:41.086Z,20.16
2023-05-01T10:41:41.059Z,20.62
2023-05-01T10:42:41.992Z,21.05
2023-05-01T10:43:45.218Z,21.16
2023-05-01T10:44:48.206Z,20.96
2023-05-01T10:46:41.145Z,20.51
2023-05-01T10:47:41.051Z,20.4
2023-05-01T10:48:41.054Z,20.38
2023-05-01T10:49:41.052Z,20.62
2023-05-01T10:50:41.073Z,20.69
2023-05-01T10:51:41.064Z,20.79
2023-05-01T10:52:41.048Z,21.06
2023-05-01T10:53:41.159Z,21.12
2023-05-01T10:54:41.048Z,21.31
2023-05-01T10:55:41.075Z,20.98
2023-05-01T10:56:41.056Z,21
2023-05-01T10:57:41.047Z,21.32
2023-05-01T10:58:41.052Z,21.47
2023-05-01T10:59:41.048Z,21.41
2023-05-01T11:00:41.174Z,21.6
2023-05-01T11:01:41.107Z,21.72
2023-05-01T11:02:41.054Z,21.44
2023-05-01T11:03:41.842Z,21.29
2023-05-01T11:04:44.682Z,21.17
2023-05-01T11:05:47.701Z,21.17
2023-05-01T11:07:41.055Z,21.08
2023-05-01T11:08:41.044Z,20.65
2023-05-01T11:09:41.142Z,20.61
2023-05-01T11:10:41.048Z,20.07
2023-05-01T11:11:41.074Z,19.86
2023-05-01T11:12:41.045Z,19.89
2023-05-01T11:13:41.115Z,19.6
2023-05-01T11:14:41.166Z,19.53
2023-05-01T11:15:41.300Z,19.42
2023-05-01T11:16:41.115Z,19.44
2023-05-01T11:17:41.085Z,19.37
2023-05-01T11:18:41.054Z,19.4
2023-05-01T11:19:41.050Z,19.48
2023-05-01T11:20:41.050Z,19.51
2023-05-01T11:21:41.045Z,19.55
2023-05-01T11:22:41.072Z,19.52
2023-05-01T11:23:41.042Z,19.48
2023-05-01T11:24:41.943Z,19.57
2023-05-01T11:25:45.433Z,19.44
2023-05-01T11:26:48.571Z,19.28
2023-05-01T11:28:41.070Z,19.15
2023-05-01T11:29:41.061Z,19.1
2023-05-01T11:30:41.050Z,18.97
2023-05-01T11:31:41.149Z,18.94
2023-05-01T11:32:41.079Z,19.16
2023-05-01T11:33:41.186Z,19.33
2023-05-01T11:34:41.053Z,19.46
2023-05-01T11:35:41.170Z,19.66
2023-05-01T11:36:41.175Z,19.73
2023-05-01T11:37:41.075Z,19.72
2023-05-01T11:38:41.070Z,19.77
2023-05-01T11:39:41.059Z,19.65
2023-05-01T11:40:41.042Z,19.61
2023-05-01T11:41:41.236Z,19.56
2023-05-01T11:42:41.055Z,19.58
2023-05-01T11:43:41.062Z,19.54
2023-05-01T11:44:41.044Z,19.23
2023-05-01T11:45:42.120Z,19.15
2023-05-01T11:46:45.495Z,19.08
2023-05-01T11:47:48.206Z,19.17
2023-05-01T11:49:41.046Z,19.31
2023-05-01T11:50:41.044Z,19.38
2023-05-01T11:51:41.046Z,19.4
2023-05-01T11:52:41.057Z,19.5
2023-05-01T11:53:41.075Z,19.35
2023-05-01T11:54:41.042Z,19.46
2023-05-01T11:55:41.051Z,19.34
2023-05-01T11:56:41.234Z,19.25
2023-05-01T11:57:41.046Z,19.16
2023-05-01T11:58:41.090Z,19.09
2023-05-01T11:59:41.122Z,19.09
2023-05-01T12:00:41.051Z,19.27
2023-05-01T12:01:41.103Z,19.46
2023-05-01T12:02:41.144Z,19.61
2023-05-01T12:03:41.094Z,19.78
2023-05-01T12:04:41.108Z,20
2023-05-01T12:05:41.053Z,20.22
2023-05-01T12:06:42.193Z,20.42
2023-05-01T12:07:45.613Z,20.6
2023-05-01T12:08:48.948Z,20.69
2023-05-01T12:10:41.071Z,20.89
2023-05-01T12:11:41.075Z,20.88
2023-05-01T12:12:41.039Z,20.89
2023-05-01T12:13:41.056Z,20.87
2023-05-01T12:14:41.052Z,20.75
2023-05-01T12:15:41.049Z,20.34
2023-05-01T12:16:41.079Z,20.29
2023-05-01T12:17:41.232Z,20.29
2023-05-01T12:18:41.054Z,20.27
2023-05-01T12:19:41.057Z,20.19
2023-05-01T12:20:41.054Z,20.23
2023-05-01T12:21:41.053Z,20.16
2023-05-01T12:22:41.047Z,19.85
2023-05-01T12:23:41.096Z,19.85
2023-05-01T12:24:41.053Z,19.8
2023-05-01T12:25:41.078Z,19.74
2023-05-01T12:26:41.050Z,19.99
2023-05-01T12:27:42.211Z,19.96
2023-05-01T12:28:45.659Z,20.16
2023-05-01T12:29:48.790Z,20.5
2023-05-01T12:31:41.071Z,21.19
2023-05-01T12:32:41.074Z,21.48
2023-05-01T12:33:41.067Z,21.67
2023-05-01T12:34:41.063Z,21.88
2023-05-01T12:35:41.054Z,22.03
2023-05-01T12:36:41.048Z,22.12
2023-05-01T12:37:41.053Z,22.17
2023-05-01T12:38:41.069Z,22.03
2023-05-01T12:39:41.048Z,21.41
2023-05-01T12:40:41.048Z,21.35
2023-05-01T12:41:41.053Z,20.87
2023-05-01T12:42:41.054Z,21.04
2023-05-01T12:43:42.451Z,20.92
2023-05-01T12:44:41.071Z,20.98
2023-05-01T12:45:41.065Z,20.8
2023-05-01T12:46:41.069Z,20.53
2023-05-01T12:47:41.100Z,20.37
2023-05-01T12:48:41.048Z,20.42
2023-05-01T12:49:42.437Z,20.33
2023-05-01T12:50:47.808Z,20.31
2023-05-01T12:51:47.891Z,20.49
2023-05-01T12:52:41.051Z,20.45
2023-05-01T12:53:41.448Z,20.5
2023-05-01T12:54:41.063Z,20.71
2023-05-01T12:55:41.046Z,20.96
2023-05-01T12:56:41.049Z,21.49
2023-05-01T12:57:41.042Z,21.99
2023-05-01T12:58:41.056Z,22.56
2023-05-01T12:59:41.057Z,23.06
2023-05-01T13:00:41.042Z,23.27
2023-05-01T13:01:41.111Z,23.1
2023-05-01T13:02:41.067Z,23.08
2023-05-01T13:03:42.109Z,23.16
2023-05-01T13:04:41.075Z,23.24
2023-05-01T13:05:41.044Z,23.53
2023-05-01T13:06:41.087Z,23.68
2023-05-01T13:07:41.038Z,23.55
2023-05-01T13:08:41.048Z,23.01
2023-05-01T13:09:41.128Z,22.59
2023-05-01T13:10:42.630Z,22.37
2023-05-01T13:11:46.114Z,22.43
2023-05-01T13:12:47.477Z,22.38
2023-05-01T13:13:41.074Z,22.35
2023-05-01T13:14:41.091Z,22.32
2023-05-01T13:15:41.049Z,22.4
2023-05-01T13:16:41.064Z,22.24
2023-05-01T13:17:41.188Z,21.68
2023-05-01T13:18:41.092Z,21.43
2023-05-01T13:19:41.045Z,21.41
2023-05-01T13:20:41.056Z,21.35
2023-05-01T13:21:41.056Z,21.4
2023-05-01T13:22:41.045Z,21.39
2023-05-01T13:23:41.067Z,21.35
2023-05-01T13:24:41.098Z,21.16
2023-05-01T13:25:41.053Z,21.05
2023-05-01T13:26:41.048Z,20.91
2023-05-01T13:27:41.061Z,20.85
2023-05-01T13:28:41.047Z,20.83
2023-05-01T13:29:41.048Z,20.79
2023-05-01T13:30:41.050Z,20.71
2023-05-01T13:31:42.923Z,20.57
2023-05-01T13:32:46.641Z,20.5
2023-05-01T13:33:47.645Z,20.44
2023-05-01T13:34:41.045Z,20.45
2023-05-01T13:35:41.237Z,20.52
2023-05-01T13:36:41.049Z,20.58
2023-05-01T13:37:41.054Z,20.66
2023-05-01T13:38:41.147Z,20.74